sensor_id;sensor_type;location;lat;lon;timestamp;P1;durP1;ratioP1;P2;durP2;ratioP2
41719;SDS011;27405;53.316;-6.294;2023-02-11T00:00:07;11.65;;;3.60;;
41719;SDS011;27405;53.316;-6.294;2023-02-11T00:02:33;10.75;;;3.75;;
41719;SDS011;27405;53.316;-6.294;2023-02-11T00:04:59;9.00;;;3.58;;
41719;SDS011;27405;53.316;-6.294;2023-02-11T00:07:28;8.30;;;3.28;;
41719;SDS011;27405;53.316;-6.294;2023-02-11T00:09:55;10.95;;;3.60;;
41719;SDS011;27405;53.316;-6.294;2023-02-11T00:12:21;10.18;;;4.15;;
41719;SDS011;27405;53.316;-6.294;2023-02-11T00:14:46;11.38;;;3.97;;
41719;SDS011;27405;53.316;-6.294;2023-02-11T00:17:12;11.90;;;4.20;;
41719;SDS011;27405;53.316;-6.294;2023-02-11T00:19:38;14.85;;;4.43;;
41719;SDS011;27405;53.316;-6.294;2023-02-11T00:22:04;9.82;;;3.80;;
41719;SDS011;27405;53.316;-6.294;2023-02-11T00:24:30;10.73;;;3.72;;
41719;SDS011;27405;53.316;-6.294;2023-02-11T00:26:55;10.07;;;3.97;;
41719;SDS011;27405;53.316;-6.294;2023-02-11T00:29:21;10.27;;;4.35;;
41719;SDS011;27405;53.316;-6.294;2023-02-11T00:31:47;11.40;;;4.35;;
41719;SDS011;27405;53.316;-6.294;2023-02-11T00:34:13;9.27;;;3.65;;
41719;SDS011;27405;53.316;-6.294;2023-02-11T00:36:38;11.63;;;3.92;;
41719;SDS011;27405;53.316;-6.294;2023-02-11T00:39:05;9.18;;;3.80;;
41719;SDS011;27405;53.316;-6.294;2023-02-11T00:41:31;10.52;;;4.18;;
41719;SDS011;27405;53.316;-6.294;2023-02-11T00:43:57;9.88;;;3.65;;
41719;SDS011;27405;53.316;-6.294;2023-02-11T00:46:23;9.55;;;4.13;;
41719;SDS011;27405;53.316;-6.294;2023-02-11T00:48:49;9.43;;;3.97;;
41719;SDS011;27405;53.316;-6.294;2023-02-11T00:51:21;10.13;;;4.30;;
41719;SDS011;27405;53.316;-6.294;2023-02-11T00:53:48;14.32;;;4.93;;
41719;SDS011;27405;53.316;-6.294;2023-02-11T00:56:13;9.98;;;4.22;;
41719;SDS011;27405;53.316;-6.294;2023-02-11T00:58:39;9.73;;;4.10;;
41719;SDS011;27405;53.316;-6.294;2023-02-11T01:01:05;11.55;;;3.70;;
41719;SDS011;27405;53.316;-6.294;2023-02-11T01:03:31;10.48;;;4.30;;
41719;SDS011;27405;53.316;-6.294;2023-02-11T01:05:58;15.27;;;4.65;;
41719;SDS011;27405;53.316;-6.294;2023-02-11T01:08:23;11.45;;;4.00;;
41719;SDS011;27405;53.316;-6.294;2023-02-11T01:10:56;7.43;;;3.60;;
41719;SDS011;27405;53.316;-6.294;2023-02-11T01:13:23;8.57;;;3.45;;
41719;SDS011;27405;53.316;-6.294;2023-02-11T01:15:50;8.70;;;2.78;;
41719;SDS011;27405;53.316;-6.294;2023-02-11T01:18:16;7.20;;;3.17;;
41719;SDS011;27405;53.316;-6.294;2023-02-11T01:20:42;8.25;;;2.95;;
41719;SDS011;27405;53.316;-6.294;2023-02-11T01:23:07;10.07;;;3.55;;
41719;SDS011;27405;53.316;-6.294;2023-02-11T01:25:33;7.80;;;3.05;;
41719;SDS011;27405;53.316;-6.294;2023-02-11T01:27:59;8.90;;;3.63;;
41719;SDS011;27405;53.316;-6.294;2023-02-11T01:30:25;7.53;;;3.60;;
41719;SDS011;27405;53.316;-6.294;2023-02-11T01:32:51;9.32;;;3.40;;
41719;SDS011;27405;53.316;-6.294;2023-02-11T01:35:16;9.30;;;3.30;;
41719;SDS011;27405;53.316;-6.294;2023-02-11T01:37:42;6.55;;;2.90;;
41719;SDS011;27405;53.316;-6.294;2023-02-11T01:40:10;6.35;;;3.25;;
41719;SDS011;27405;53.316;-6.294;2023-02-11T01:42:40;11.60;;;3.60;;
41719;SDS011;27405;53.316;-6.294;2023-02-11T01:48:03;7.00;;;2.97;;
41719;SDS011;27405;53.316;-6.294;2023-02-11T01:50:29;10.85;;;3.67;;
41719;SDS011;27405;53.316;-6.294;2023-02-11T01:52:55;8.75;;;3.25;;
41719;SDS011;27405;53.316;-6.294;2023-02-11T01:55:41;8.07;;;3.30;;
41719;SDS011;27405;53.316;-6.294;2023-02-11T01:58:25;8.27;;;3.67;;
41719;SDS011;27405;53.316;-6.294;2023-02-11T02:00:52;7.90;;;3.42;;
41719;SDS011;27405;53.316;-6.294;2023-02-11T02:03:19;11.57;;;3.50;;
41719;SDS011;27405;53.316;-6.294;2023-02-11T02:05:53;7.32;;;3.55;;
41719;SDS011;27405;53.316;-6.294;2023-02-11T02:11:05;9.65;;;3.30;;
41719;SDS011;27405;53.316;-6.294;2023-02-11T02:13:32;6.28;;;3.78;;
41719;SDS011;27405;53.316;-6.294;2023-02-11T02:16:00;8.20;;;3.40;;
41719;SDS011;27405;53.316;-6.294;2023-02-11T02:23:31;13.07;;;3.78;;
41719;SDS011;27405;53.316;-6.294;2023-02-11T02:29:30;7.83;;;3.20;;
41719;SDS011;27405;53.316;-6.294;2023-02-11T02:37:17;5.43;;;2.40;;
41719;SDS011;27405;53.316;-6.294;2023-02-11T02:39:51;7.88;;;2.40;;
41719;SDS011;27405;53.316;-6.294;2023-02-11T02:42:17;6.20;;;2.22;;
41719;SDS011;27405;53.316;-6.294;2023-02-11T02:44:48;6.03;;;2.20;;
41719;SDS011;27405;53.316;-6.294;2023-02-11T02:47:14;5.80;;;2.40;;
41719;SDS011;27405;53.316;-6.294;2023-02-11T02:49:40;10.27;;;2.50;;
41719;SDS011;27405;53.316;-6.294;2023-02-11T02:57:32;9.73;;;2.72;;
41719;SDS011;27405;53.316;-6.294;2023-02-11T03:06:02;6.93;;;2.70;;
41719;SDS011;27405;53.316;-6.294;2023-02-11T03:08:51;7.07;;;2.50;;
41719;SDS011;27405;53.316;-6.294;2023-02-11T03:11:20;6.30;;;2.50;;
41719;SDS011;27405;53.316;-6.294;2023-02-11T03:13:47;7.03;;;2.70;;
41719;SDS011;27405;53.316;-6.294;2023-02-11T03:16:16;7.30;;;2.85;;
41719;SDS011;27405;53.316;-6.294;2023-02-11T03:18:48;3.65;;;2.60;;
41719;SDS011;27405;53.316;-6.294;2023-02-11T03:21:20;5.40;;;2.53;;
41719;SDS011;27405;53.316;-6.294;2023-02-11T03:23:55;9.85;;;3.10;;
41719;SDS011;27405;53.316;-6.294;2023-02-11T03:26:27;10.65;;;2.72;;
41719;SDS011;27405;53.316;-6.294;2023-02-11T03:31:53;4.88;;;1.73;;
41719;SDS011;27405;53.316;-6.294;2023-02-11T03:34:33;5.03;;;1.75;;
41719;SDS011;27405;53.316;-6.294;2023-02-11T03:39:54;7.10;;;2.08;;
41719;SDS011;27405;53.316;-6.294;2023-02-11T03:42:25;7.18;;;2.40;;
41719;SDS011;27405;53.316;-6.294;2023-02-11T03:44:57;6.35;;;2.20;;
41719;SDS011;27405;53.316;-6.294;2023-02-11T03:47:30;4.65;;;2.10;;
41719;SDS011;27405;53.316;-6.294;2023-02-11T03:49:59;8.73;;;2.20;;
41719;SDS011;27405;53.316;-6.294;2023-02-11T03:52:28;6.53;;;1.85;;
41719;SDS011;27405;53.316;-6.294;2023-02-11T03:54:56;4.25;;;1.83;;
41719;SDS011;27405;53.316;-6.294;2023-02-11T03:57:24;5.57;;;1.85;;
41719;SDS011;27405;53.316;-6.294;2023-02-11T03:59:51;7.38;;;2.03;;
41719;SDS011;27405;53.316;-6.294;2023-02-11T04:02:18;6.20;;;2.33;;
41719;SDS011;27405;53.316;-6.294;2023-02-11T04:04:45;6.57;;;2.13;;
41719;SDS011;27405;53.316;-6.294;2023-02-11T04:07:11;5.90;;;2.20;;
41719;SDS011;27405;53.316;-6.294;2023-02-11T04:09:37;6.00;;;2.05;;
41719;SDS011;27405;53.316;-6.294;2023-02-11T04:12:03;3.85;;;2.05;;
41719;SDS011;27405;53.316;-6.294;2023-02-11T04:14:28;7.90;;;2.17;;
41719;SDS011;27405;53.316;-6.294;2023-02-11T04:16:54;6.68;;;2.65;;
41719;SDS011;27405;53.316;-6.294;2023-02-11T04:19:20;8.00;;;2.38;;
41719;SDS011;27405;53.316;-6.294;2023-02-11T04:21:45;8.50;;;2.38;;
41719;SDS011;27405;53.316;-6.294;2023-02-11T04:24:11;4.35;;;2.13;;
41719;SDS011;27405;53.316;-6.294;2023-02-11T04:26:37;6.18;;;1.85;;
41719;SDS011;27405;53.316;-6.294;2023-02-11T04:29:02;9.48;;;2.05;;
41719;SDS011;27405;53.316;-6.294;2023-02-11T04:31:28;4.15;;;1.80;;
41719;SDS011;27405;53.316;-6.294;2023-02-11T04:33:54;3.55;;;1.60;;
41719;SDS011;27405;53.316;-6.294;2023-02-11T04:36:20;3.67;;;1.65;;
41719;SDS011;27405;53.316;-6.294;2023-02-11T04:38:46;3.67;;;1.80;;
41719;SDS011;27405;53.316;-6.294;2023-02-11T04:41:11;3.80;;;1.67;;
41719;SDS011;27405;53.316;-6.294;2023-02-11T04:43:37;5.05;;;1.90;;
41719;SDS011;27405;53.316;-6.294;2023-02-11T04:46:03;6.20;;;1.95;;
41719;SDS011;27405;53.316;-6.294;2023-02-11T04:48:29;4.55;;;1.70;;
41719;SDS011;27405;53.316;-6.294;2023-02-11T04:50:54;3.50;;;1.95;;
41719;SDS011;27405;53.316;-6.294;2023-02-11T04:53:20;5.07;;;1.98;;
41719;SDS011;27405;53.316;-6.294;2023-02-11T04:55:49;5.18;;;1.85;;
41719;SDS011;27405;53.316;-6.294;2023-02-11T04:58:15;1.77;;;1.50;;
41719;SDS011;27405;53.316;-6.294;2023-02-11T05:00:41;3.47;;;1.85;;
41719;SDS011;27405;53.316;-6.294;2023-02-11T05:03:07;7.65;;;2.20;;
41719;SDS011;27405;53.316;-6.294;2023-02-11T05:05:32;6.55;;;2.10;;
41719;SDS011;27405;53.316;-6.294;2023-02-11T05:07:58;6.30;;;1.98;;
41719;SDS011;27405;53.316;-6.294;2023-02-11T05:10:24;8.52;;;1.80;;
41719;SDS011;27405;53.316;-6.294;2023-02-11T05:12:49;5.57;;;1.50;;
41719;SDS011;27405;53.316;-6.294;2023-02-11T05:15:15;4.28;;;1.50;;
41719;SDS011;27405;53.316;-6.294;2023-02-11T05:17:41;4.50;;;1.60;;
41719;SDS011;27405;53.316;-6.294;2023-02-11T05:20:06;7.45;;;2.08;;
41719;SDS011;27405;53.316;-6.294;2023-02-11T05:22:33;6.25;;;1.60;;
41719;SDS011;27405;53.316;-6.294;2023-02-11T05:24:58;6.75;;;1.63;;
41719;SDS011;27405;53.316;-6.294;2023-02-11T05:27:24;4.55;;;1.10;;
41719;SDS011;27405;53.316;-6.294;2023-02-11T05:29:50;2.03;;;1.40;;
41719;SDS011;27405;53.316;-6.294;2023-02-11T05:32:16;5.63;;;1.27;;
41719;SDS011;27405;53.316;-6.294;2023-02-11T05:34:41;3.80;;;1.60;;
41719;SDS011;27405;53.316;-6.294;2023-02-11T05:37:07;4.15;;;1.25;;
41719;SDS011;27405;53.316;-6.294;2023-02-11T05:39:33;3.45;;;1.33;;
41719;SDS011;27405;53.316;-6.294;2023-02-11T05:41:58;5.50;;;2.05;;
41719;SDS011;27405;53.316;-6.294;2023-02-11T05:44:24;6.82;;;1.83;;
41719;SDS011;27405;53.316;-6.294;2023-02-11T05:46:50;5.30;;;1.90;;
41719;SDS011;27405;53.316;-6.294;2023-02-11T05:49:16;3.97;;;1.73;;
41719;SDS011;27405;53.316;-6.294;2023-02-11T05:51:42;7.40;;;2.20;;
41719;SDS011;27405;53.316;-6.294;2023-02-11T05:54:07;5.30;;;2.20;;
41719;SDS011;27405;53.316;-6.294;2023-02-11T05:56:33;5.55;;;2.13;;
41719;SDS011;27405;53.316;-6.294;2023-02-11T05:58:59;10.25;;;2.63;;
41719;SDS011;27405;53.316;-6.294;2023-02-11T06:01:25;10.00;;;3.30;;
41719;SDS011;27405;53.316;-6.294;2023-02-11T06:03:51;6.22;;;3.00;;
41719;SDS011;27405;53.316;-6.294;2023-02-11T06:06:16;13.70;;;3.40;;
41719;SDS011;27405;53.316;-6.294;2023-02-11T06:08:42;6.55;;;3.65;;
41719;SDS011;27405;53.316;-6.294;2023-02-11T06:11:08;12.70;;;4.38;;
41719;SDS011;27405;53.316;-6.294;2023-02-11T06:13:34;9.88;;;4.13;;
41719;SDS011;27405;53.316;-6.294;2023-02-11T06:16:00;9.95;;;4.63;;
41719;SDS011;27405;53.316;-6.294;2023-02-11T06:18:27;7.75;;;3.88;;
41719;SDS011;27405;53.316;-6.294;2023-02-11T06:20:53;9.80;;;4.97;;
41719;SDS011;27405;53.316;-6.294;2023-02-11T06:23:19;8.80;;;4.32;;
41719;SDS011;27405;53.316;-6.294;2023-02-11T06:25:45;11.40;;;4.32;;
41719;SDS011;27405;53.316;-6.294;2023-02-11T06:28:10;6.97;;;3.38;;
41719;SDS011;27405;53.316;-6.294;2023-02-11T06:30:36;8.55;;;3.50;;
41719;SDS011;27405;53.316;-6.294;2023-02-11T06:33:02;7.60;;;3.28;;
41719;SDS011;27405;53.316;-6.294;2023-02-11T06:35:28;10.32;;;3.15;;
41719;SDS011;27405;53.316;-6.294;2023-02-11T06:37:54;5.18;;;2.70;;
41719;SDS011;27405;53.316;-6.294;2023-02-11T06:40:20;4.60;;;2.33;;
41719;SDS011;27405;53.316;-6.294;2023-02-11T06:42:46;8.93;;;2.95;;
41719;SDS011;27405;53.316;-6.294;2023-02-11T06:45:11;7.63;;;2.70;;
41719;SDS011;27405;53.316;-6.294;2023-02-11T06:47:37;7.22;;;2.50;;
41719;SDS011;27405;53.316;-6.294;2023-02-11T06:50:05;9.00;;;2.45;;
41719;SDS011;27405;53.316;-6.294;2023-02-11T06:52:32;5.70;;;2.35;;
41719;SDS011;27405;53.316;-6.294;2023-02-11T06:54:58;6.00;;;2.20;;
41719;SDS011;27405;53.316;-6.294;2023-02-11T06:57:24;5.82;;;2.30;;
41719;SDS011;27405;53.316;-6.294;2023-02-11T06:59:50;6.82;;;2.10;;
41719;SDS011;27405;53.316;-6.294;2023-02-11T07:02:15;4.07;;;1.88;;
41719;SDS011;27405;53.316;-6.294;2023-02-11T07:04:41;4.88;;;2.00;;
41719;SDS011;27405;53.316;-6.294;2023-02-11T07:07:07;5.97;;;1.80;;
41719;SDS011;27405;53.316;-6.294;2023-02-11T07:09:33;7.88;;;1.88;;
41719;SDS011;27405;53.316;-6.294;2023-02-11T07:11:58;9.02;;;2.38;;
41719;SDS011;27405;53.316;-6.294;2023-02-11T07:14:24;7.68;;;1.90;;
41719;SDS011;27405;53.316;-6.294;2023-02-11T07:16:49;5.72;;;1.52;;
41719;SDS011;27405;53.316;-6.294;2023-02-11T07:19:15;8.02;;;1.70;;
41719;SDS011;27405;53.316;-6.294;2023-02-11T07:21:41;5.53;;;1.58;;
41719;SDS011;27405;53.316;-6.294;2023-02-11T07:24:07;8.40;;;1.60;;
41719;SDS011;27405;53.316;-6.294;2023-02-11T07:26:34;5.90;;;1.80;;
41719;SDS011;27405;53.316;-6.294;2023-02-11T07:29:00;9.70;;;1.38;;
41719;SDS011;27405;53.316;-6.294;2023-02-11T07:31:26;6.53;;;1.65;;
41719;SDS011;27405;53.316;-6.294;2023-02-11T07:33:53;3.72;;;1.23;;
41719;SDS011;27405;53.316;-6.294;2023-02-11T07:36:21;10.60;;;1.93;;
41719;SDS011;27405;53.316;-6.294;2023-02-11T07:38:47;5.38;;;1.45;;
41719;SDS011;27405;53.316;-6.294;2023-02-11T07:41:14;5.28;;;1.40;;
41719;SDS011;27405;53.316;-6.294;2023-02-11T07:43:43;4.72;;;1.40;;
41719;SDS011;27405;53.316;-6.294;2023-02-11T07:46:10;7.95;;;1.60;;
41719;SDS011;27405;53.316;-6.294;2023-02-11T07:48:43;7.57;;;1.60;;
41719;SDS011;27405;53.316;-6.294;2023-02-11T07:51:10;9.23;;;1.33;;
41719;SDS011;27405;53.316;-6.294;2023-02-11T07:53:40;5.93;;;1.30;;
41719;SDS011;27405;53.316;-6.294;2023-02-11T07:56:07;7.20;;;1.52;;
41719;SDS011;27405;53.316;-6.294;2023-02-11T07:58:34;5.50;;;1.40;;
41719;SDS011;27405;53.316;-6.294;2023-02-11T08:01:01;10.30;;;1.33;;
41719;SDS011;27405;53.316;-6.294;2023-02-11T08:03:27;4.75;;;1.13;;
41719;SDS011;27405;53.316;-6.294;2023-02-11T08:05:53;7.63;;;1.50;;
41719;SDS011;27405;53.316;-6.294;2023-02-11T08:08:19;4.78;;;1.17;;
41719;SDS011;27405;53.316;-6.294;2023-02-11T08:10:44;7.68;;;1.35;;
41719;SDS011;27405;53.316;-6.294;2023-02-11T08:13:10;8.77;;;1.60;;
41719;SDS011;27405;53.316;-6.294;2023-02-11T08:15:36;8.68;;;1.52;;
41719;SDS011;27405;53.316;-6.294;2023-02-11T08:18:01;6.88;;;1.65;;
41719;SDS011;27405;53.316;-6.294;2023-02-11T08:20:27;7.35;;;1.40;;
41719;SDS011;27405;53.316;-6.294;2023-02-11T08:22:53;7.57;;;1.80;;
41719;SDS011;27405;53.316;-6.294;2023-02-11T08:25:18;9.45;;;1.50;;
41719;SDS011;27405;53.316;-6.294;2023-02-11T08:27:44;8.35;;;1.63;;
41719;SDS011;27405;53.316;-6.294;2023-02-11T08:30:10;9.80;;;1.50;;
41719;SDS011;27405;53.316;-6.294;2023-02-11T08:32:36;9.15;;;1.90;;
41719;SDS011;27405;53.316;-6.294;2023-02-11T08:35:03;8.48;;;1.60;;
41719;SDS011;27405;53.316;-6.294;2023-02-11T08:37:32;10.57;;;1.67;;
41719;SDS011;27405;53.316;-6.294;2023-02-11T08:39:57;9.02;;;1.40;;
41719;SDS011;27405;53.316;-6.294;2023-02-11T08:42:23;7.57;;;1.52;;
41719;SDS011;27405;53.316;-6.294;2023-02-11T08:44:49;9.43;;;1.50;;
41719;SDS011;27405;53.316;-6.294;2023-02-11T08:47:14;12.98;;;1.60;;
41719;SDS011;27405;53.316;-6.294;2023-02-11T08:49:40;7.93;;;1.50;;
41719;SDS011;27405;53.316;-6.294;2023-02-11T08:52:06;8.57;;;1.80;;
41719;SDS011;27405;53.316;-6.294;2023-02-11T08:54:32;5.82;;;1.42;;
41719;SDS011;27405;53.316;-6.294;2023-02-11T08:56:58;7.93;;;1.83;;
41719;SDS011;27405;53.316;-6.294;2023-02-11T08:59:25;6.32;;;1.65;;
41719;SDS011;27405;53.316;-6.294;2023-02-11T09:01:51;10.07;;;2.00;;
41719;SDS011;27405;53.316;-6.294;2023-02-11T09:04:17;13.38;;;2.35;;
41719;SDS011;27405;53.316;-6.294;2023-02-11T09:06:43;7.43;;;1.88;;
41719;SDS011;27405;53.316;-6.294;2023-02-11T09:09:10;8.52;;;1.42;;
41719;SDS011;27405;53.316;-6.294;2023-02-11T09:11:38;16.50;;;2.05;;
41719;SDS011;27405;53.316;-6.294;2023-02-11T09:14:04;9.93;;;1.60;;
41719;SDS011;27405;53.316;-6.294;2023-02-11T09:16:31;12.20;;;1.80;;
41719;SDS011;27405;53.316;-6.294;2023-02-11T09:18:59;5.00;;;1.80;;
41719;SDS011;27405;53.316;-6.294;2023-02-11T09:21:26;10.82;;;1.80;;
41719;SDS011;27405;53.316;-6.294;2023-02-11T09:23:52;9.60;;;1.85;;
41719;SDS011;27405;53.316;-6.294;2023-02-11T09:26:20;8.07;;;1.70;;
41719;SDS011;27405;53.316;-6.294;2023-02-11T09:28:56;10.32;;;2.25;;
41719;SDS011;27405;53.316;-6.294;2023-02-11T09:31:24;11.40;;;2.05;;
41719;SDS011;27405;53.316;-6.294;2023-02-11T09:33:52;15.25;;;2.05;;
41719;SDS011;27405;53.316;-6.294;2023-02-11T09:36:22;6.28;;;1.38;;
41719;SDS011;27405;53.316;-6.294;2023-02-11T09:38:50;13.57;;;1.83;;
41719;SDS011;27405;53.316;-6.294;2023-02-11T09:41:22;4.75;;;1.30;;
41719;SDS011;27405;53.316;-6.294;2023-02-11T09:43:59;14.43;;;2.20;;
41719;SDS011;27405;53.316;-6.294;2023-02-11T09:46:33;10.57;;;1.83;;
41719;SDS011;27405;53.316;-6.294;2023-02-11T09:49:01;11.75;;;1.98;;
41719;SDS011;27405;53.316;-6.294;2023-02-11T09:51:35;11.88;;;2.08;;
41719;SDS011;27405;53.316;-6.294;2023-02-11T09:54:15;11.80;;;2.00;;
41719;SDS011;27405;53.316;-6.294;2023-02-11T09:56:49;15.63;;;2.60;;
41719;SDS011;27405;53.316;-6.294;2023-02-11T09:59:15;15.27;;;2.13;;
41719;SDS011;27405;53.316;-6.294;2023-02-11T10:08:10;15.45;;;2.45;;
41719;SDS011;27405;53.316;-6.294;2023-02-11T10:21:30;21.65;;;2.70;;
41719;SDS011;27405;53.316;-6.294;2023-02-11T10:24:09;23.58;;;2.85;;
41719;SDS011;27405;53.316;-6.294;2023-02-11T10:26:36;13.13;;;2.30;;
41719;SDS011;27405;53.316;-6.294;2023-02-11T10:29:10;21.13;;;2.83;;
41719;SDS011;27405;53.316;-6.294;2023-02-11T10:31:46;36.40;;;3.85;;
41719;SDS011;27405;53.316;-6.294;2023-02-11T10:34:14;24.85;;;2.83;;
41719;SDS011;27405;53.316;-6.294;2023-02-11T10:36:40;13.52;;;2.22;;
41719;SDS011;27405;53.316;-6.294;2023-02-11T10:39:17;22.52;;;2.53;;
41719;SDS011;27405;53.316;-6.294;2023-02-11T10:42:07;25.42;;;3.20;;
41719;SDS011;27405;53.316;-6.294;2023-02-11T10:44:38;19.55;;;2.60;;
41719;SDS011;27405;53.316;-6.294;2023-02-11T10:49:49;17.25;;;2.80;;
41719;SDS011;27405;53.316;-6.294;2023-02-11T10:54:57;15.25;;;2.55;;
41719;SDS011;27405;53.316;-6.294;2023-02-11T10:57:59;19.10;;;3.05;;
41719;SDS011;27405;53.316;-6.294;2023-02-11T11:03:00;18.52;;;2.72;;
41719;SDS011;27405;53.316;-6.294;2023-02-11T11:05:29;18.23;;;2.20;;
41719;SDS011;27405;53.316;-6.294;2023-02-11T11:08:10;26.00;;;3.47;;
41719;SDS011;27405;53.316;-6.294;2023-02-11T11:10:44;20.35;;;3.35;;
41719;SDS011;27405;53.316;-6.294;2023-02-11T11:16:07;19.77;;;3.70;;
41719;SDS011;27405;53.316;-6.294;2023-02-11T11:18:41;22.33;;;3.40;;
41719;SDS011;27405;53.316;-6.294;2023-02-11T11:23:56;11.30;;;2.33;;
41719;SDS011;27405;53.316;-6.294;2023-02-11T11:26:25;18.95;;;2.88;;
41719;SDS011;27405;53.316;-6.294;2023-02-11T11:28:59;39.75;;;3.70;;
41719;SDS011;27405;53.316;-6.294;2023-02-11T11:34:20;21.75;;;2.90;;
41719;SDS011;27405;53.316;-6.294;2023-02-11T11:36:50;24.80;;;3.00;;
41719;SDS011;27405;53.316;-6.294;2023-02-11T11:39:17;14.10;;;2.15;;
41719;SDS011;27405;53.316;-6.294;2023-02-11T11:41:55;15.93;;;2.47;;
41719;SDS011;27405;53.316;-6.294;2023-02-11T11:49:40;35.03;;;4.00;;
41719;SDS011;27405;53.316;-6.294;2023-02-11T11:52:43;17.17;;;2.20;;
41719;SDS011;27405;53.316;-6.294;2023-02-11T11:55:34;17.08;;;2.95;;
41719;SDS011;27405;53.316;-6.294;2023-02-11T11:58:17;12.40;;;2.97;;
41719;SDS011;27405;53.316;-6.294;2023-02-11T12:04:03;13.38;;;2.50;;
41719;SDS011;27405;53.316;-6.294;2023-02-11T12:13:04;11.40;;;2.13;;
41719;SDS011;27405;53.316;-6.294;2023-02-11T12:27:07;12.95;;;2.20;;
41719;SDS011;27405;53.316;-6.294;2023-02-11T12:32:31;11.43;;;2.45;;
41719;SDS011;27405;53.316;-6.294;2023-02-11T12:43:44;18.80;;;2.63;;
41719;SDS011;27405;53.316;-6.294;2023-02-11T12:48:41;11.40;;;2.60;;
41719;SDS011;27405;53.316;-6.294;2023-02-11T12:59:11;7.20;;;1.70;;
41719;SDS011;27405;53.316;-6.294;2023-02-11T13:02:00;11.23;;;2.50;;
41719;SDS011;27405;53.316;-6.294;2023-02-11T13:04:37;8.18;;;1.55;;
41719;SDS011;27405;53.316;-6.294;2023-02-11T13:07:10;11.23;;;2.05;;
41719;SDS011;27405;53.316;-6.294;2023-02-11T13:09:51;15.82;;;1.90;;
41719;SDS011;27405;53.316;-6.294;2023-02-11T13:12:27;9.15;;;2.00;;
41719;SDS011;27405;53.316;-6.294;2023-02-11T13:15:13;10.55;;;1.80;;
41719;SDS011;27405;53.316;-6.294;2023-02-11T13:17:42;23.70;;;3.25;;
41719;SDS011;27405;53.316;-6.294;2023-02-11T13:20:38;8.85;;;1.67;;
41719;SDS011;27405;53.316;-6.294;2023-02-11T13:25:58;11.25;;;2.20;;
41719;SDS011;27405;53.316;-6.294;2023-02-11T13:28:35;9.82;;;2.00;;
41719;SDS011;27405;53.316;-6.294;2023-02-11T13:31:11;7.20;;;2.50;;
41719;SDS011;27405;53.316;-6.294;2023-02-11T13:33:40;9.60;;;1.88;;
41719;SDS011;27405;53.316;-6.294;2023-02-11T13:38:36;9.57;;;1.80;;
41719;SDS011;27405;53.316;-6.294;2023-02-11T13:44:04;12.32;;;2.55;;
41719;SDS011;27405;53.316;-6.294;2023-02-11T13:51:53;16.60;;;4.30;;
41719;SDS011;27405;53.316;-6.294;2023-02-11T13:54:24;11.57;;;3.42;;
41719;SDS011;27405;53.316;-6.294;2023-02-11T13:59:44;7.57;;;2.20;;
41719;SDS011;27405;53.316;-6.294;2023-02-11T14:21:13;10.05;;;2.75;;
41719;SDS011;27405;53.316;-6.294;2023-02-11T14:23:41;11.18;;;4.00;;
41719;SDS011;27405;53.316;-6.294;2023-02-11T14:26:13;13.50;;;2.67;;
41719;SDS011;27405;53.316;-6.294;2023-02-11T14:29:29;8.80;;;1.90;;
41719;SDS011;27405;53.316;-6.294;2023-02-11T14:37:43;11.68;;;2.08;;
41719;SDS011;27405;53.316;-6.294;2023-02-11T14:43:11;9.30;;;1.73;;
41719;SDS011;27405;53.316;-6.294;2023-02-11T14:45:42;6.63;;;1.80;;
41719;SDS011;27405;53.316;-6.294;2023-02-11T14:48:14;8.88;;;2.20;;
41719;SDS011;27405;53.316;-6.294;2023-02-11T14:50:43;12.43;;;3.80;;
41719;SDS011;27405;53.316;-6.294;2023-02-11T14:53:16;15.48;;;3.45;;
41719;SDS011;27405;53.316;-6.294;2023-02-11T14:55:49;6.72;;;2.90;;
41719;SDS011;27405;53.316;-6.294;2023-02-11T14:58:20;7.63;;;2.83;;
41719;SDS011;27405;53.316;-6.294;2023-02-11T15:00:50;10.68;;;3.50;;
41719;SDS011;27405;53.316;-6.294;2023-02-11T15:05:58;10.55;;;2.53;;
41719;SDS011;27405;53.316;-6.294;2023-02-11T15:08:27;16.75;;;2.70;;
41719;SDS011;27405;53.316;-6.294;2023-02-11T15:10:54;13.57;;;4.03;;
41719;SDS011;27405;53.316;-6.294;2023-02-11T15:13:21;9.38;;;2.78;;
41719;SDS011;27405;53.316;-6.294;2023-02-11T15:15:53;9.88;;;2.40;;
41719;SDS011;27405;53.316;-6.294;2023-02-11T15:18:22;11.85;;;2.40;;
41719;SDS011;27405;53.316;-6.294;2023-02-11T15:20:54;13.73;;;5.13;;
41719;SDS011;27405;53.316;-6.294;2023-02-11T15:23:21;16.40;;;2.67;;
41719;SDS011;27405;53.316;-6.294;2023-02-11T15:28:24;11.95;;;3.13;;
41719;SDS011;27405;53.316;-6.294;2023-02-11T15:30:59;9.18;;;3.10;;
41719;SDS011;27405;53.316;-6.294;2023-02-11T15:33:27;13.05;;;2.50;;
41719;SDS011;27405;53.316;-6.294;2023-02-11T15:35:56;13.88;;;2.30;;
41719;SDS011;27405;53.316;-6.294;2023-02-11T15:38:23;9.18;;;2.20;;
41719;SDS011;27405;53.316;-6.294;2023-02-11T15:40:56;12.00;;;2.80;;
41719;SDS011;27405;53.316;-6.294;2023-02-11T15:43:45;8.35;;;2.45;;
41719;SDS011;27405;53.316;-6.294;2023-02-11T15:46:14;9.73;;;2.45;;
41719;SDS011;27405;53.316;-6.294;2023-02-11T15:49:00;9.75;;;2.50;;
41719;SDS011;27405;53.316;-6.294;2023-02-11T15:51:33;7.82;;;2.55;;
41719;SDS011;27405;53.316;-6.294;2023-02-11T15:54:02;6.72;;;2.75;;
41719;SDS011;27405;53.316;-6.294;2023-02-11T15:56:39;13.25;;;2.35;;
41719;SDS011;27405;53.316;-6.294;2023-02-11T15:59:21;12.40;;;3.88;;
41719;SDS011;27405;53.316;-6.294;2023-02-11T16:01:51;12.27;;;3.20;;
41719;SDS011;27405;53.316;-6.294;2023-02-11T16:04:22;9.93;;;2.63;;
41719;SDS011;27405;53.316;-6.294;2023-02-11T16:06:50;11.90;;;3.03;;
41719;SDS011;27405;53.316;-6.294;2023-02-11T16:09:22;10.90;;;2.90;;
41719;SDS011;27405;53.316;-6.294;2023-02-11T16:11:55;11.50;;;3.22;;
41719;SDS011;27405;53.316;-6.294;2023-02-11T16:17:38;15.38;;;3.38;;
41719;SDS011;27405;53.316;-6.294;2023-02-11T16:19:45;12.93;;;3.08;;
41719;SDS011;27405;53.316;-6.294;2023-02-11T16:22:23;20.55;;;7.22;;
41719;SDS011;27405;53.316;-6.294;2023-02-11T16:24:52;14.73;;;6.53;;
41719;SDS011;27405;53.316;-6.294;2023-02-11T16:27:26;17.90;;;5.43;;
41719;SDS011;27405;53.316;-6.294;2023-02-11T16:30:26;12.60;;;4.88;;
41719;SDS011;27405;53.316;-6.294;2023-02-11T16:32:52;11.75;;;3.67;;
41719;SDS011;27405;53.316;-6.294;2023-02-11T16:35:18;9.55;;;3.45;;
41719;SDS011;27405;53.316;-6.294;2023-02-11T16:37:44;13.48;;;4.43;;
41719;SDS011;27405;53.316;-6.294;2023-02-11T16:40:10;13.27;;;4.93;;
41719;SDS011;27405;53.316;-6.294;2023-02-11T16:42:36;11.43;;;4.28;;
41719;SDS011;27405;53.316;-6.294;2023-02-11T16:45:02;8.95;;;3.05;;
41719;SDS011;27405;53.316;-6.294;2023-02-11T16:47:28;9.90;;;4.07;;
41719;SDS011;27405;53.316;-6.294;2023-02-11T16:49:55;8.13;;;3.20;;
41719;SDS011;27405;53.316;-6.294;2023-02-11T16:52:22;13.38;;;3.90;;
41719;SDS011;27405;53.316;-6.294;2023-02-11T16:54:49;10.93;;;4.00;;
41719;SDS011;27405;53.316;-6.294;2023-02-11T16:57:16;18.33;;;5.45;;
41719;SDS011;27405;53.316;-6.294;2023-02-11T16:59:43;10.80;;;3.60;;
41719;SDS011;27405;53.316;-6.294;2023-02-11T17:02:14;10.60;;;4.80;;
41719;SDS011;27405;53.316;-6.294;2023-02-11T17:04:53;16.13;;;4.97;;
41719;SDS011;27405;53.316;-6.294;2023-02-11T17:07:21;14.15;;;5.53;;
41719;SDS011;27405;53.316;-6.294;2023-02-11T17:09:47;10.52;;;5.75;;
41719;SDS011;27405;53.316;-6.294;2023-02-11T17:12:13;25.88;;;15.88;;
41719;SDS011;27405;53.316;-6.294;2023-02-11T17:14:38;17.17;;;6.88;;
41719;SDS011;27405;53.316;-6.294;2023-02-11T17:17:04;18.92;;;7.35;;
41719;SDS011;27405;53.316;-6.294;2023-02-11T17:19:30;14.43;;;4.75;;
41719;SDS011;27405;53.316;-6.294;2023-02-11T17:21:56;18.38;;;8.13;;
41719;SDS011;27405;53.316;-6.294;2023-02-11T17:24:22;16.08;;;5.88;;
41719;SDS011;27405;53.316;-6.294;2023-02-11T17:26:48;15.85;;;8.27;;
41719;SDS011;27405;53.316;-6.294;2023-02-11T17:29:15;16.27;;;5.80;;